createdAt,value
2023-05-19T00:00:38.352Z,114.14
2023-05-19T00:01:38.315Z,118.43
2023-05-19T00:02:38.419Z,116.76
2023-05-19T00:03:38.449Z,119.42
2023-05-19T00:04:38.382Z,112.85
2023-05-19T00:05:38.427Z,115.74
2023-05-19T00:06:38.416Z,115.11
2023-05-19T00:07:38.426Z,114.47
2023-05-19T00:08:38.523Z,120.02
2023-05-19T00:09:38.470Z,120.08
2023-05-19T00:10:38.418Z,119.24
2023-05-19T00:11:39.097Z,115.55
2023-05-19T00:12:38.463Z,115.51
2023-05-19T00:13:38.446Z,118.72
2023-05-19T00:14:38.483Z,116.89
2023-05-19T00:15:38.554Z,119.48
2023-05-19T00:16:38.484Z,118.60
2023-05-19T00:17:38.529Z,117.06
2023-05-19T00:18:38.588Z,119.28
2023-05-19T00:19:38.544Z,116.90
2023-05-19T00:20:38.501Z,113.58
2023-05-19T00:21:38.494Z,117.28
2023-05-19T00:22:38.506Z,118.88
2023-05-19T00:23:38.518Z,120.91
2023-05-19T00:24:38.555Z,117.78
2023-05-19T00:25:38.546Z,116.86
2023-05-19T00:26:38.569Z,115.67
2023-05-19T00:27:38.585Z,118.36
2023-05-19T00:28:38.609Z,115.89
2023-05-19T00:29:38.612Z,115.30
2023-05-19T00:30:38.588Z,116.06
2023-05-19T00:31:38.650Z,118.54
2023-05-19T00:32:38.684Z,113.70
2023-05-19T00:33:38.668Z,116.08
2023-05-19T00:34:38.675Z,116.76
2023-05-19T00:35:38.628Z,115.97
2023-05-19T00:36:38.663Z,117.53
2023-05-19T00:37:38.694Z,117.66
2023-05-19T00:38:38.644Z,113.41
2023-05-19T00:39:38.676Z,116.81
2023-05-19T00:40:38.716Z,116.30
2023-05-19T00:41:38.695Z,118.47
2023-05-19T00:42:38.695Z,116.75
2023-05-19T00:43:38.709Z,112.68
2023-05-19T00:44:38.734Z,115.37
2023-05-19T00:45:38.758Z,119.52
2023-05-19T00:46:38.777Z,113.50
2023-05-19T00:47:38.854Z,114.39
2023-05-19T00:48:38.803Z,115.70
2023-05-19T00:49:38.805Z,115.42
2023-05-19T00:50:38.820Z,114.86
2023-05-19T00:51:38.836Z,117.65
2023-05-19T00:52:38.913Z,116.00
2023-05-19T00:53:38.873Z,115.44
2023-05-19T00:54:38.881Z,117.60
2023-05-19T00:55:38.906Z,116.75
2023-05-19T00:56:38.935Z,120.48
2023-05-19T00:57:38.968Z,114.06
2023-05-19T00:58:38.977Z,115.64
2023-05-19T00:59:38.973Z,114.01
2023-05-19T01:00:39.027Z,114.96
2023-05-19T01:01:39.081Z,114.79
2023-05-19T01:02:39.212Z,116.12
2023-05-19T01:03:39.158Z,117.52
2023-05-19T01:04:39.095Z,115.79
2023-05-19T01:05:39.087Z,112.25
2023-05-19T01:06:39.140Z,112.16
2023-05-19T01:07:39.128Z,114.68
2023-05-19T01:08:39.122Z,116.97
2023-05-19T01:09:39.142Z,112.16
2023-05-19T01:10:39.167Z,119.10
2023-05-19T01:11:39.191Z,110.84
2023-05-19T01:12:39.176Z,116.18
2023-05-19T01:13:41.930Z,116.47
2023-05-19T01:14:39.203Z,117.52
2023-05-19T01:15:39.202Z,115.82
2023-05-19T01:16:39.241Z,116.62
2023-05-19T01:17:39.204Z,117.30
2023-05-19T01:18:39.243Z,115.76
2023-05-19T01:19:39.164Z,114.81
2023-05-19T01:20:39.190Z,115.26
2023-05-19T01:21:39.183Z,116.24
2023-05-19T01:22:39.157Z,111.92
2023-05-19T01:23:39.153Z,111.69
2023-05-19T01:24:39.139Z,117.94
2023-05-19T01:25:39.156Z,113.42
2023-05-19T01:26:39.113Z,115.28
2023-05-19T01:27:39.141Z,115.27
2023-05-19T01:28:39.132Z,117.06
2023-05-19T01:29:39.108Z,115.42
2023-05-19T01:30:39.102Z,115.81
2023-05-19T01:31:39.117Z,116.27
2023-05-19T01:32:39.143Z,117.09
2023-05-19T01:33:39.077Z,115.15
2023-05-19T01:34:39.092Z,117.10
2023-05-19T01:35:39.112Z,117.64
2023-05-19T01:36:39.085Z,113.63
2023-05-19T01:37:39.048Z,113.57
2023-05-19T01:38:39.055Z,115.56
2023-05-19T01:39:39.049Z,114.00
2023-05-19T01:40:39.028Z,116.40
2023-05-19T01:41:39.037Z,118.32
2023-05-19T01:42:39.039Z,113.57
2023-05-19T01:43:39.050Z,116.02
2023-05-19T01:44:38.988Z,115.87
2023-05-19T01:45:39.026Z,116.74
2023-05-19T01:46:38.991Z,113.91
2023-05-19T01:47:39.004Z,113.56
2023-05-19T01:48:38.975Z,115.36
2023-05-19T01:49:38.987Z,112.27
2023-05-19T01:50:38.981Z,115.91
2023-05-19T01:51:38.925Z,113.02
2023-05-19T01:52:38.937Z,116.72
2023-05-19T01:53:38.942Z,114.09
2023-05-19T01:54:38.935Z,113.54
2023-05-19T01:55:38.961Z,112.81
2023-05-19T01:56:38.949Z,114.91
2023-05-19T01:57:38.958Z,111.07
2023-05-19T01:58:38.940Z,114.68
2023-05-19T01:59:38.953Z,111.75
2023-05-19T02:00:38.896Z,117.87
2023-05-19T02:01:38.983Z,116.59
2023-05-19T02:02:38.991Z,113.48
2023-05-19T02:03:38.881Z,117.30
2023-05-19T02:04:39.013Z,115.85
2023-05-19T02:05:38.894Z,112.83
2023-05-19T02:06:38.833Z,117.41
2023-05-19T02:07:38.909Z,113.00
2023-05-19T02:08:38.860Z,115.68
2023-05-19T02:09:38.871Z,117.51
2023-05-19T02:10:38.949Z,113.49
2023-05-19T02:11:38.849Z,110.42
2023-05-19T02:12:38.846Z,114.10
2023-05-19T02:13:38.854Z,117.05
2023-05-19T02:14:38.790Z,113.72
2023-05-19T02:15:38.946Z,113.74
2023-05-19T02:16:38.809Z,114.27
2023-05-19T02:17:38.870Z,116.48
2023-05-19T02:18:38.838Z,114.10
2023-05-19T02:19:38.773Z,114.70
2023-05-19T02:20:38.781Z,115.79
2023-05-19T02:21:38.814Z,112.67
2023-05-19T02:22:38.746Z,115.35
2023-05-19T02:23:38.801Z,110.58
2023-05-19T02:24:38.748Z,116.42
2023-05-19T02:25:38.775Z,112.64
2023-05-19T02:26:38.731Z,108.32
2023-05-19T02:27:38.678Z,106.38
2023-05-19T02:28:38.711Z,113.65
2023-05-19T02:29:38.727Z,113.20
2023-05-19T02:30:38.684Z,115.57
2023-05-19T02:31:38.768Z,114.08
2023-05-19T02:32:38.754Z,112.71
2023-05-19T02:33:38.675Z,110.84
2023-05-19T02:34:38.672Z,115.64
2023-05-19T02:35:38.684Z,112.86
2023-05-19T02:36:38.632Z,114.76
2023-05-19T02:37:38.698Z,115.98
2023-05-19T02:38:38.646Z,113.93
2023-05-19T02:39:38.647Z,113.39
2023-05-19T02:40:38.670Z,113.54
2023-05-19T02:41:38.653Z,113.09
2023-05-19T02:42:38.624Z,113.85
2023-05-19T02:43:38.636Z,112.44
2023-05-19T02:44:38.689Z,113.01
2023-05-19T02:45:38.691Z,114.07
2023-05-19T02:46:38.782Z,114.50
2023-05-19T02:47:38.804Z,112.27
2023-05-19T02:48:38.786Z,112.23
2023-05-19T02:49:38.775Z,114.81
2023-05-19T02:50:38.774Z,112.48
2023-05-19T02:51:38.846Z,110.83
2023-05-19T02:52:38.841Z,112.67
2023-05-19T02:53:38.840Z,112.90
2023-05-19T02:54:38.896Z,116.17
2023-05-19T02:55:38.920Z,113.43
2023-05-19T02:56:38.948Z,113.99
2023-05-19T02:57:39.000Z,112.89
2023-05-19T02:58:39.029Z,111.61
2023-05-19T02:59:39.047Z,110.17
2023-05-19T03:00:39.046Z,113.57
2023-05-19T03:01:39.164Z,113.54
2023-05-19T03:02:39.235Z,114.69
2023-05-19T03:03:39.237Z,113.67
2023-05-19T03:04:39.180Z,113.01
2023-05-19T03:05:39.215Z,111.18
2023-05-19T03:06:39.237Z,112.20
2023-05-19T03:07:39.325Z,111.81
2023-05-19T03:08:41.621Z,115.60
2023-05-19T03:09:39.302Z,115.45
2023-05-19T03:10:39.265Z,114.14
2023-05-19T03:11:39.264Z,112.52
2023-05-19T03:12:39.262Z,111.93
2023-05-19T03:13:39.260Z,112.98
2023-05-19T03:14:39.265Z,115.08
2023-05-19T03:15:39.260Z,110.86
2023-05-19T03:16:39.355Z,106.11
2023-05-19T03:17:39.298Z,110.30
2023-05-19T03:18:39.250Z,114.06
2023-05-19T03:19:39.223Z,113.05
2023-05-19T03:20:41.586Z,112.92
2023-05-19T03:21:39.264Z,113.01
2023-05-19T03:22:39.314Z,113.35
2023-05-19T03:23:39.364Z,113.54
2023-05-19T03:24:39.360Z,111.37
2023-05-19T03:25:39.429Z,114.47
2023-05-19T03:26:39.391Z,111.84
2023-05-19T03:27:39.416Z,112.86
2023-05-19T03:28:39.469Z,112.21
2023-05-19T03:29:39.465Z,111.30
2023-05-19T03:30:39.451Z,108.16
2023-05-19T03:31:39.489Z,111.84
2023-05-19T03:32:39.576Z,113.84
2023-05-19T03:33:39.608Z,113.06
2023-05-19T03:34:39.604Z,113.80
2023-05-19T03:35:39.609Z,113.11
2023-05-19T03:36:39.698Z,114.60
2023-05-19T03:37:39.652Z,113.18
2023-05-19T03:38:39.698Z,112.16
2023-05-19T03:39:39.761Z,111.19
2023-05-19T03:40:39.752Z,110.91
2023-05-19T03:41:39.822Z,112.65
2023-05-19T03:42:39.857Z,110.95
2023-05-19T03:43:39.869Z,109.66
2023-05-19T03:44:39.894Z,110.81
2023-05-19T03:45:40.046Z,110.31
2023-05-19T03:46:39.999Z,110.29
2023-05-19T03:47:39.993Z,110.59
2023-05-19T03:48:40.021Z,111.88
2023-05-19T03:49:40.031Z,109.15
2023-05-19T03:50:40.124Z,108.92
2023-05-19T03:51:40.128Z,111.47
2023-05-19T03:52:40.120Z,110.19
2023-05-19T03:53:40.145Z,110.94
2023-05-19T03:54:40.178Z,111.41
2023-05-19T03:55:40.244Z,109.07
2023-05-19T03:56:41.264Z,109.35
2023-05-19T03:57:40.289Z,106.67
2023-05-19T03:58:40.305Z,106.17
2023-05-19T03:59:40.343Z,106.34
2023-05-19T04:00:40.352Z,105.44
2023-05-19T04:01:40.412Z,107.15
2023-05-19T04:02:40.535Z,107.87
2023-05-19T04:03:40.580Z,108.99
2023-05-19T04:04:40.544Z,106.56
2023-05-19T04:05:40.535Z,103.69
2023-05-19T04:06:40.564Z,102.44
2023-05-19T04:07:40.577Z,93.73
2023-05-19T04:08:40.644Z,92.75
2023-05-19T04:09:40.657Z,88.91
2023-05-19T04:10:40.684Z,85.35
2023-05-19T04:11:40.789Z,78.89
2023-05-19T04:12:40.816Z,75.94
2023-05-19T04:13:40.806Z,63.07
2023-05-19T04:14:40.863Z,54.95
2023-05-19T04:15:40.945Z,51.10
2023-05-19T04:16:40.982Z,44.51
2023-05-19T04:17:41.071Z,40.50
2023-05-19T04:18:41.059Z,34.09
2023-05-19T04:19:41.062Z,31.20
2023-05-19T04:20:41.147Z,26.86
2023-05-19T04:21:41.244Z,25.00
2023-05-19T04:22:41.209Z,25.52
2023-05-19T04:23:41.190Z,25.06
2023-05-19T04:24:41.177Z,24.09
2023-05-19T04:25:41.182Z,26.73
2023-05-19T04:26:41.176Z,28.67
2023-05-19T04:27:41.207Z,23.81
2023-05-19T04:28:41.222Z,25.00
2023-05-19T04:29:41.241Z,27.61
2023-05-19T04:30:41.245Z,27.66
2023-05-19T04:31:41.346Z,30.80
2023-05-19T04:32:41.376Z,27.57
2023-05-19T04:33:41.364Z,26.38
2023-05-19T04:34:41.353Z,29.80
2023-05-19T04:35:41.410Z,27.01
2023-05-19T04:36:41.461Z,30.32
2023-05-19T04:37:41.462Z,26.95
2023-05-19T04:38:41.585Z,26.67
2023-05-19T04:39:41.585Z,27.79
2023-05-19T04:40:41.614Z,26.61
2023-05-19T04:41:41.618Z,28.47
2023-05-19T04:42:41.688Z,26.91
2023-05-19T04:43:41.913Z,30.97
2023-05-19T04:44:41.752Z,27.41
2023-05-19T04:45:41.768Z,27.42
2023-05-19T04:46:41.873Z,30.49
2023-05-19T04:47:41.915Z,26.84
2023-05-19T04:48:41.887Z,29.14
2023-05-19T04:49:41.904Z,29.21
2023-05-19T04:50:41.895Z,29.94
2023-05-19T04:51:41.977Z,32.04
2023-05-19T04:52:41.961Z,30.33
2023-05-19T04:53:41.981Z,32.56
2023-05-19T04:54:42.001Z,34.03
2023-05-19T04:55:41.978Z,35.56
2023-05-19T04:56:42.012Z,33.67
2023-05-19T04:57:42.039Z,31.48
2023-05-19T04:58:42.087Z,34.16
2023-05-19T04:59:42.136Z,34.29
2023-05-19T05:00:42.106Z,34.10
2023-05-19T05:01:42.108Z,35.78
2023-05-19T05:02:42.164Z,31.21
2023-05-19T05:03:42.229Z,33.41
2023-05-19T05:04:42.099Z,32.97
2023-05-19T05:05:42.117Z,36.73
2023-05-19T05:06:42.155Z,33.28
2023-05-19T05:07:42.123Z,36.39
2023-05-19T05:08:42.173Z,35.32
2023-05-19T05:09:42.185Z,40.89
2023-05-19T05:10:42.208Z,36.17
2023-05-19T05:11:42.188Z,35.88
2023-05-19T05:12:42.231Z,37.43
2023-05-19T05:13:42.273Z,39.52
2023-05-19T05:14:42.260Z,37.41
2023-05-19T05:15:42.250Z,33.95
2023-05-19T05:16:42.342Z,37.85
2023-05-19T05:17:42.354Z,38.15
2023-05-19T05:18:44.660Z,39.51
2023-05-19T05:19:42.310Z,42.72
2023-05-19T05:20:42.277Z,42.51
2023-05-19T05:21:42.289Z,40.63
2023-05-19T05:22:42.261Z,43.66
2023-05-19T05:23:42.273Z,45.66
2023-05-19T05:24:42.276Z,45.94
2023-05-19T05:25:42.243Z,44.29
2023-05-19T05:26:42.259Z,43.12
2023-05-19T05:27:42.227Z,45.04
2023-05-19T05:28:42.248Z,43.87
2023-05-19T05:29:42.196Z,43.71
2023-05-19T05:30:42.206Z,45.73
2023-05-19T05:31:42.217Z,48.37
2023-05-19T05:32:42.271Z,46.04
2023-05-19T05:33:42.289Z,45.03
2023-05-19T05:34:42.180Z,44.87
2023-05-19T05:35:42.214Z,48.33
2023-05-19T05:36:42.195Z,49.40
2023-05-19T05:37:42.186Z,45.71
2023-05-19T05:38:42.159Z,45.80
2023-05-19T05:39:42.144Z,48.81
2023-05-19T05:40:42.173Z,50.85
2023-05-19T05:41:42.142Z,45.89
2023-05-19T05:42:42.132Z,46.16
2023-05-19T05:43:42.132Z,44.84
2023-05-19T05:44:42.143Z,49.10
2023-05-19T05:45:42.149Z,54.01
2023-05-19T05:46:42.139Z,50.21
2023-05-19T05:47:42.203Z,51.46
2023-05-19T05:48:42.136Z,48.22
2023-05-19T05:49:42.135Z,51.21
2023-05-19T05:50:42.087Z,48.03
2023-05-19T05:51:46.335Z,53.65
2023-05-19T05:52:43.089Z,53.84
2023-05-19T05:53:42.064Z,53.95
2023-05-19T05:54:42.082Z,53.76
2023-05-19T05:55:42.044Z,54.51
2023-05-19T05:56:42.067Z,54.96
2023-05-19T05:57:42.048Z,55.57
2023-05-19T05:58:42.067Z,49.85
2023-05-19T05:59:42.000Z,52.38
2023-05-19T06:00:42.050Z,51.65
2023-05-19T06:01:42.026Z,52.20
2023-05-19T06:02:42.115Z,51.09
2023-05-19T06:03:42.064Z,57.61
2023-05-19T06:04:41.986Z,53.23
2023-05-19T06:05:42.020Z,56.72
2023-05-19T06:06:42.002Z,56.84
2023-05-19T06:07:41.997Z,55.41
2023-05-19T06:08:41.973Z,54.51
2023-05-19T06:09:41.972Z,54.65
2023-05-19T06:10:41.979Z,53.84
2023-05-19T06:11:41.949Z,55.47
2023-05-19T06:12:41.989Z,54.47
2023-05-19T06:13:41.935Z,55.01
2023-05-19T06:14:41.973Z,52.51
2023-05-19T06:15:41.928Z,50.32
2023-05-19T06:16:42.043Z,51.10
2023-05-19T06:17:41.968Z,57.49
2023-05-19T06:18:41.918Z,49.55
2023-05-19T06:19:41.980Z,56.62
2023-05-19T06:20:42.022Z,53.34
2023-05-19T06:21:42.039Z,52.47
2023-05-19T06:22:42.101Z,51.70
2023-05-19T06:23:42.173Z,53.44
2023-05-19T06:24:42.181Z,55.51
2023-05-19T06:25:42.266Z,54.83
2023-05-19T06:26:42.265Z,59.32
2023-05-19T06:27:42.342Z,60.68
2023-05-19T06:28:42.348Z,59.32
2023-05-19T06:29:42.407Z,60.38
2023-05-19T06:30:42.429Z,60.66
2023-05-19T06:31:42.530Z,59.32
2023-05-19T06:32:42.545Z,60.84
2023-05-19T06:33:42.527Z,59.88
2023-05-19T06:34:42.620Z,62.13
2023-05-19T06:35:42.649Z,61.40
2023-05-19T06:36:42.668Z,60.20
2023-05-19T06:37:42.748Z,58.38
2023-05-19T06:38:42.794Z,62.93
2023-05-19T06:39:42.817Z,60.14
2023-05-19T06:40:42.869Z,58.94
2023-05-19T06:41:42.909Z,60.84
2023-05-19T06:42:42.957Z,60.30
2023-05-19T06:43:42.990Z,61.05
2023-05-19T06:44:43.078Z,64.04
2023-05-19T06:45:43.068Z,62.35
2023-05-19T06:46:43.162Z,61.01
2023-05-19T06:47:43.245Z,62.04
2023-05-19T06:48:43.178Z,57.85
2023-05-19T06:49:43.207Z,58.89
2023-05-19T06:50:43.210Z,59.76
2023-05-19T06:51:43.238Z,58.90
2023-05-19T06:52:43.216Z,62.72
2023-05-19T06:53:43.233Z,63.33
2023-05-19T06:54:43.224Z,64.88
2023-05-19T06:55:57.455Z,66.43
2023-05-19T06:56:44.246Z,66.49
2023-05-19T06:57:43.216Z,66.59
2023-05-19T06:58:43.254Z,66.47
2023-05-19T06:59:43.220Z,67.33
2023-05-19T07:00:43.200Z,68.94
2023-05-19T07:01:43.297Z,69.50
2023-05-19T07:02:43.277Z,67.12
2023-05-19T07:03:43.217Z,68.08
2023-05-19T07:04:43.285Z,71.18
2023-05-19T07:05:43.183Z,71.18
2023-05-19T07:06:43.171Z,72.21
2023-05-19T07:07:43.179Z,69.58
2023-05-19T07:08:43.171Z,69.80
2023-05-19T07:09:43.193Z,72.44
2023-05-19T07:10:43.146Z,72.51
2023-05-19T07:11:43.180Z,70.93
2023-05-19T07:12:43.124Z,74.15
2023-05-19T07:13:43.118Z,71.67
2023-05-19T07:14:43.085Z,72.42
2023-05-19T07:15:43.137Z,71.88
2023-05-19T07:16:43.170Z,74.36
2023-05-19T07:17:43.196Z,72.11
2023-05-19T07:18:43.172Z,72.00
2023-05-19T07:19:43.169Z,75.46
2023-05-19T07:20:43.056Z,72.77
2023-05-19T07:21:43.077Z,73.35
2023-05-19T07:22:43.032Z,74.08
2023-05-19T07:23:43.056Z,76.10
2023-05-19T07:24:43.045Z,75.25
2023-05-19T07:25:43.017Z,68.23
2023-05-19T07:26:43.032Z,73.23
2023-05-19T07:27:43.009Z,72.85
2023-05-19T07:28:43.029Z,72.20
2023-05-19T07:29:42.985Z,72.42
2023-05-19T07:30:43.020Z,71.12
2023-05-19T07:31:43.037Z,72.67
2023-05-19T07:32:43.035Z,72.33
2023-05-19T07:33:43.009Z,74.07
2023-05-19T07:34:42.976Z,69.61
2023-05-19T07:35:42.952Z,70.77
2023-05-19T07:36:43.080Z,71.68
2023-05-19T07:37:42.947Z,74.10
2023-05-19T07:38:43.014Z,71.23
2023-05-19T07:39:42.953Z,69.97
2023-05-19T07:40:42.911Z,69.54
2023-05-19T07:41:42.966Z,71.61
2023-05-19T07:42:42.897Z,68.66
2023-05-19T07:43:42.924Z,68.97
2023-05-19T07:44:42.898Z,70.74
2023-05-19T07:45:42.969Z,71.09
2023-05-19T07:46:42.889Z,68.46
2023-05-19T07:47:42.941Z,68.80
2023-05-19T07:48:42.900Z,68.12
2023-05-19T07:49:42.987Z,71.34
2023-05-19T07:50:43.028Z,70.75
2023-05-19T07:51:43.028Z,69.46
2023-05-19T07:52:43.068Z,67.06
2023-05-19T07:53:43.116Z,68.01
2023-05-19T07:54:43.143Z,65.51
2023-05-19T07:55:43.188Z,64.65
2023-05-19T07:56:43.236Z,66.97
2023-05-19T07:57:43.325Z,65.08
2023-05-19T07:58:43.405Z,64.15
2023-05-19T07:59:43.397Z,64.68
2023-05-19T08:00:43.501Z,65.61
2023-05-19T08:01:43.514Z,65.01
2023-05-19T08:02:43.647Z,64.82
2023-05-19T08:03:43.772Z,63.00
2023-05-19T08:04:43.781Z,66.13
2023-05-19T08:05:43.738Z,67.91
2023-05-19T08:06:43.818Z,63.58
2023-05-19T08:07:43.892Z,61.42
2023-05-19T08:08:43.929Z,65.47
2023-05-19T08:09:44.012Z,65.28
2023-05-19T08:10:44.063Z,66.38
2023-05-19T08:11:44.125Z,65.30
2023-05-19T08:12:44.207Z,64.38
2023-05-19T08:13:44.239Z,64.84
2023-05-19T08:14:44.279Z,64.12
2023-05-19T08:15:44.341Z,62.68
2023-05-19T08:16:44.404Z,62.08
2023-05-19T08:17:44.477Z,60.03
2023-05-19T08:18:44.601Z,59.49
2023-05-19T08:19:44.545Z,61.39
2023-05-19T08:20:44.583Z,57.83
2023-05-19T08:21:44.745Z,58.86
2023-05-19T08:22:44.673Z,54.74
2023-05-19T08:23:44.726Z,55.35
2023-05-19T08:24:44.851Z,56.60
2023-05-19T08:25:44.812Z,55.22
2023-05-19T08:26:44.873Z,55.15
2023-05-19T08:27:44.880Z,57.90
2023-05-19T08:28:44.940Z,55.11
2023-05-19T08:29:44.982Z,54.35
2023-05-19T08:30:45.010Z,54.77
2023-05-19T08:31:45.089Z,54.92
2023-05-19T08:32:45.101Z,54.89
2023-05-19T08:33:45.113Z,51.02
2023-05-19T08:34:45.103Z,55.31
2023-05-19T08:35:45.133Z,52.78
2023-05-19T08:36:45.182Z,50.68
2023-05-19T08:37:45.180Z,53.28
2023-05-19T08:38:45.195Z,53.67
2023-05-19T08:39:45.237Z,49.87
2023-05-19T08:40:45.244Z,49.61
2023-05-19T08:41:45.259Z,53.03
2023-05-19T08:42:45.292Z,51.30
2023-05-19T08:43:45.313Z,52.89
2023-05-19T08:44:45.324Z,51.17
2023-05-19T08:45:45.304Z,52.42
2023-05-19T08:46:45.309Z,51.20
2023-05-19T08:47:45.350Z,50.83
2023-05-19T08:48:45.365Z,52.33
2023-05-19T08:49:45.345Z,52.09
2023-05-19T08:50:45.325Z,49.57
2023-05-19T08:51:45.381Z,50.65
2023-05-19T08:52:47.864Z,49.08
2023-05-19T08:53:45.363Z,49.23
2023-05-19T08:54:45.362Z,49.59
2023-05-19T08:55:45.347Z,48.90
2023-05-19T08:56:45.344Z,50.48
2023-05-19T08:57:45.333Z,48.78
2023-05-19T08:58:45.329Z,47.20
2023-05-19T08:59:45.296Z,51.12
2023-05-19T09:00:45.309Z,50.07
2023-05-19T09:01:45.464Z,45.83
2023-05-19T09:02:55.070Z,47.42
2023-05-19T09:03:46.428Z,47.69
2023-05-19T09:04:45.337Z,47.71
2023-05-19T09:05:45.305Z,47.70
2023-05-19T09:06:45.380Z,47.78
2023-05-19T09:07:45.269Z,45.70
2023-05-19T09:08:45.284Z,46.22
2023-05-19T09:09:45.225Z,43.66
2023-05-19T09:10:45.261Z,39.90
2023-05-19T09:11:45.233Z,44.23
2023-05-19T09:12:45.248Z,43.94
2023-05-19T09:13:45.231Z,43.97
2023-05-19T09:14:45.221Z,43.42
2023-05-19T09:15:45.201Z,39.30
2023-05-19T09:16:45.222Z,40.18
2023-05-19T09:17:45.198Z,39.50
2023-05-19T09:18:45.234Z,38.81
2023-05-19T09:19:45.192Z,38.23
2023-05-19T09:20:45.230Z,35.64
2023-05-19T09:21:45.190Z,36.25
2023-05-19T09:22:45.168Z,39.67
2023-05-19T09:23:45.184Z,39.03
2023-05-19T09:24:45.217Z,38.35
2023-05-19T09:25:45.149Z,37.84
2023-05-19T09:26:45.144Z,39.75
2023-05-19T09:27:45.138Z,37.66
2023-05-19T09:28:45.125Z,39.09
2023-05-19T09:29:45.167Z,35.38
2023-05-19T09:30:45.186Z,36.99
2023-05-19T09:31:45.281Z,38.80
2023-05-19T09:32:45.386Z,37.04
2023-05-19T09:33:46.209Z,35.83
2023-05-19T09:34:45.426Z,36.95
2023-05-19T09:35:45.478Z,37.37
2023-05-19T09:36:45.513Z,37.50
2023-05-19T09:37:45.573Z,35.05
2023-05-19T09:38:45.658Z,34.49
2023-05-19T09:39:45.715Z,38.38
2023-05-19T09:40:45.801Z,36.85
2023-05-19T09:41:45.828Z,38.04
2023-05-19T09:42:45.853Z,39.03
2023-05-19T09:43:45.944Z,39.29
2023-05-19T09:44:45.973Z,39.05
2023-05-19T09:45:46.081Z,41.75
2023-05-19T09:46:46.137Z,39.53
2023-05-19T09:47:46.218Z,41.31
2023-05-19T09:48:46.188Z,42.79
2023-05-19T09:49:46.217Z,40.33
2023-05-19T09:50:46.248Z,45.02
2023-05-19T09:51:46.296Z,45.80
2023-05-19T09:52:46.361Z,42.40
2023-05-19T09:53:46.395Z,41.93
2023-05-19T09:54:46.432Z,43.05
2023-05-19T09:55:46.466Z,41.19
2023-05-19T09:56:46.500Z,41.89
2023-05-19T09:57:46.529Z,40.98
2023-05-19T09:58:46.539Z,43.65
2023-05-19T09:59:46.577Z,45.91
2023-05-19T10:00:46.594Z,51.55
2023-05-19T10:01:46.753Z,49.58
2023-05-19T10:02:46.682Z,50.36
2023-05-19T10:03:46.668Z,52.03
2023-05-19T10:04:46.795Z,53.56
2023-05-19T10:05:46.764Z,49.76
2023-05-19T10:06:46.735Z,52.17
2023-05-19T10:07:46.777Z,53.11
2023-05-19T10:08:46.805Z,52.82
2023-05-19T10:09:46.810Z,54.91
2023-05-19T10:10:46.816Z,53.85
2023-05-19T10:11:46.886Z,52.70
2023-05-19T10:12:46.884Z,53.36
2023-05-19T10:13:46.892Z,56.36
2023-05-19T10:14:46.912Z,54.87
2023-05-19T10:16:47.997Z,52.83
2023-05-19T10:17:46.925Z,52.99
2023-05-19T10:18:46.973Z,53.39
2023-05-19T10:19:46.888Z,55.01
2023-05-19T10:20:46.858Z,55.58
2023-05-19T10:21:46.890Z,56.43
2023-05-19T10:22:46.885Z,56.67
2023-05-19T10:23:46.914Z,58.22
2023-05-19T10:24:46.862Z,55.96
2023-05-19T10:25:46.875Z,59.13
2023-05-19T10:26:46.880Z,59.47
2023-05-19T10:27:46.807Z,58.27
2023-05-19T10:28:46.883Z,59.35
2023-05-19T10:29:46.822Z,60.59
2023-05-19T10:30:46.830Z,58.84
2023-05-19T10:31:46.845Z,61.79
2023-05-19T10:32:46.875Z,61.79
2023-05-19T10:33:46.812Z,61.88
2023-05-19T10:34:46.825Z,59.86
2023-05-19T10:35:47.307Z,62.29
2023-05-19T10:36:46.774Z,59.98
2023-05-19T10:37:46.797Z,58.79
2023-05-19T10:38:46.757Z,60.03
2023-05-19T10:39:46.824Z,61.77
2023-05-19T10:40:46.771Z,60.72
2023-05-19T10:41:47.094Z,58.82
2023-05-19T10:42:46.740Z,59.92
2023-05-19T10:43:46.729Z,59.88
2023-05-19T10:44:46.743Z,59.71
2023-05-19T10:45:46.718Z,61.44
2023-05-19T10:46:46.742Z,56.52
2023-05-19T10:47:46.763Z,60.95
2023-05-19T10:48:46.703Z,55.67
2023-05-19T10:49:46.676Z,60.09
2023-05-19T10:50:46.697Z,60.28
2023-05-19T10:51:46.690Z,61.89
2023-05-19T10:52:46.699Z,62.02
2023-05-19T10:53:46.754Z,61.47
2023-05-19T10:54:46.738Z,58.41
2023-05-19T10:55:46.711Z,60.45
2023-05-19T10:56:46.728Z,59.11
2023-05-19T10:57:46.724Z,57.43
2023-05-19T10:58:46.749Z,55.43
2023-05-19T10:59:46.739Z,53.52
2023-05-19T11:00:46.798Z,60.90
2023-05-19T11:01:46.810Z,51.49
2023-05-19T11:02:46.805Z,53.82
2023-05-19T11:03:46.860Z,52.20
2023-05-19T11:04:48.892Z,53.17
2023-05-19T11:05:46.790Z,53.38
2023-05-19T11:06:46.800Z,53.58
2023-05-19T11:07:46.796Z,52.49
2023-05-19T11:08:46.806Z,53.39
2023-05-19T11:09:46.755Z,57.91
2023-05-19T11:10:46.766Z,52.60
2023-05-19T11:11:46.802Z,57.16
2023-05-19T11:12:46.804Z,54.48
2023-05-19T11:13:46.791Z,54.21
2023-05-19T11:14:46.750Z,58.54
2023-05-19T11:15:46.753Z,58.61
2023-05-19T11:16:46.900Z,60.85
2023-05-19T11:17:46.756Z,53.70
2023-05-19T11:18:46.799Z,60.75
2023-05-19T11:19:46.731Z,67.91
2023-05-19T11:20:46.784Z,57.88
2023-05-19T11:21:46.746Z,64.06
2023-05-19T11:22:46.689Z,59.60
2023-05-19T11:23:46.778Z,62.72
2023-05-19T11:24:46.721Z,71.55
2023-05-19T11:25:46.822Z,66.49
2023-05-19T11:26:46.892Z,68.68
2023-05-19T11:27:46.883Z,62.27
2023-05-19T11:28:46.949Z,62.59
2023-05-19T11:29:47.007Z,71.52
2023-05-19T11:30:47.053Z,58.76
2023-05-19T11:31:47.121Z,71.08
2023-05-19T11:32:47.145Z,66.74
2023-05-19T11:33:47.179Z,69.92
2023-05-19T11:34:47.260Z,68.16
2023-05-19T11:35:47.286Z,64.20
2023-05-19T11:36:47.369Z,66.64
2023-05-19T11:37:47.407Z,72.79
2023-05-19T11:38:47.467Z,68.84
2023-05-19T11:39:47.471Z,68.44
2023-05-19T11:40:47.552Z,64.02
2023-05-19T11:41:47.594Z,67.48
2023-05-19T11:42:47.641Z,67.72
2023-05-19T11:43:47.681Z,68.89
2023-05-19T11:44:47.710Z,68.83
2023-05-19T11:45:47.778Z,73.56
2023-05-19T11:46:47.997Z,71.84
2023-05-19T11:48:01.255Z,67.62
2023-05-19T11:48:48.871Z,67.88
2023-05-19T11:49:47.854Z,68.71
2023-05-19T11:50:47.828Z,69.98
2023-05-19T11:51:47.879Z,74.45
2023-05-19T11:52:47.860Z,76.23
2023-05-19T11:53:47.816Z,74.21
2023-05-19T11:54:47.830Z,73.12
2023-05-19T11:55:48.381Z,71.33
2023-05-19T11:56:47.845Z,75.83
2023-05-19T11:58:02.569Z,79.72
2023-05-19T11:58:48.832Z,78.90
2023-05-19T11:59:47.824Z,77.36
2023-05-19T12:00:48.174Z,78.31
2023-05-19T12:01:47.763Z,76.30
2023-05-19T12:02:47.829Z,78.24
2023-05-19T12:03:47.948Z,76.47
2023-05-19T12:04:47.793Z,84.88
2023-05-19T12:05:48.384Z,73.18
2023-05-19T12:06:47.841Z,83.98
2023-05-19T12:07:47.763Z,82.70
2023-05-19T12:08:47.707Z,82.86
2023-05-19T12:09:47.722Z,82.64
2023-05-19T12:10:47.737Z,78.66
2023-05-19T12:11:47.758Z,85.37
2023-05-19T12:12:47.794Z,84.32
2023-05-19T12:13:47.903Z,81.30
2023-05-19T12:14:47.912Z,87.99
2023-05-19T12:15:48.027Z,80.37
2023-05-19T12:16:48.076Z,81.95
2023-05-19T12:17:48.071Z,78.02
2023-05-19T12:18:48.094Z,86.35
2023-05-19T12:19:48.177Z,74.34
2023-05-19T12:20:48.197Z,83.16
2023-05-19T12:21:48.306Z,86.54
2023-05-19T12:22:48.323Z,80.72
2023-05-19T12:23:48.409Z,83.61
2023-05-19T12:24:48.447Z,76.69
2023-05-19T12:25:48.461Z,80.02
2023-05-19T12:26:48.555Z,85.39
2023-05-19T12:27:48.566Z,89.91
2023-05-19T12:28:48.633Z,82.62
2023-05-19T12:29:48.682Z,80.76
2023-05-19T12:30:48.759Z,93.22
2023-05-19T12:31:48.838Z,86.59
2023-05-19T12:32:48.850Z,82.85
2023-05-19T12:33:48.870Z,82.88
2023-05-19T12:34:48.972Z,87.91
2023-05-19T12:35:48.968Z,90.08
2023-05-19T12:36:49.055Z,84.67
2023-05-19T12:37:49.124Z,84.36
2023-05-19T12:38:49.200Z,85.47
2023-05-19T12:39:49.272Z,77.68
2023-05-19T12:40:49.280Z,77.19
2023-05-19T12:41:49.348Z,88.94
2023-05-19T12:42:49.376Z,83.91
2023-05-19T12:43:49.479Z,85.76
2023-05-19T12:44:49.551Z,81.88
2023-05-19T12:45:49.647Z,85.73